sensor_id;sensor_type;location;lat;lon;timestamp;P1;durP1;ratioP1;P2;durP2;ratioP2
51943;SDS011;37969;53.132;6.370;2022-10-03T00:00:28;36.45;;;4.00;;
51943;SDS011;37969;53.132;6.370;2022-10-03T00:15:41;31.52;;;3.83;;
51943;SDS011;37969;53.132;6.370;2022-10-03T00:18:13;23.83;;;3.45;;
51943;SDS011;37969;53.132;6.370;2022-10-03T00:21:02;26.23;;;4.35;;
51943;SDS011;37969;53.132;6.370;2022-10-03T00:26:19;27.85;;;3.60;;
51943;SDS011;37969;53.132;6.370;2022-10-03T00:31:21;30.95;;;3.50;;
51943;SDS011;37969;53.132;6.370;2022-10-03T00:33:54;18.88;;;3.20;;
51943;SDS011;37969;53.132;6.370;2022-10-03T00:36:29;27.30;;;4.65;;
51943;SDS011;37969;53.132;6.370;2022-10-03T00:39:07;23.50;;;3.67;;
51943;SDS011;37969;53.132;6.370;2022-10-03T00:44:23;20.48;;;3.40;;
51943;SDS011;37969;53.132;6.370;2022-10-03T00:47:12;24.50;;;3.63;;
51943;SDS011;37969;53.132;6.370;2022-10-03T00:52:19;22.35;;;3.60;;
51943;SDS011;37969;53.132;6.370;2022-10-03T00:54:56;25.52;;;4.15;;
51943;SDS011;37969;53.132;6.370;2022-10-03T01:07:50;22.88;;;3.60;;
51943;SDS011;37969;53.132;6.370;2022-10-03T01:10:22;27.05;;;3.50;;
51943;SDS011;37969;53.132;6.370;2022-10-03T01:13:16;26.50;;;4.30;;
51943;SDS011;37969;53.132;6.370;2022-10-03T01:16:02;24.20;;;3.70;;
51943;SDS011;37969;53.132;6.370;2022-10-03T01:18:34;21.27;;;3.85;;
51943;SDS011;37969;53.132;6.370;2022-10-03T01:21:18;24.20;;;3.60;;
51943;SDS011;37969;53.132;6.370;2022-10-03T01:24:00;23.38;;;3.70;;
51943;SDS011;37969;53.132;6.370;2022-10-03T01:26:37;23.05;;;3.35;;
51943;SDS011;37969;53.132;6.370;2022-10-03T01:29:14;26.27;;;4.65;;
51943;SDS011;37969;53.132;6.370;2022-10-03T01:37:08;27.90;;;4.25;;
51943;SDS011;37969;53.132;6.370;2022-10-03T01:39:40;22.35;;;2.97;;
51943;SDS011;37969;53.132;6.370;2022-10-03T01:42:09;35.47;;;3.67;;
51943;SDS011;37969;53.132;6.370;2022-10-03T01:47:15;27.38;;;3.65;;
51943;SDS011;37969;53.132;6.370;2022-10-03T01:49:45;20.67;;;3.30;;
51943;SDS011;37969;53.132;6.370;2022-10-03T01:52:18;22.05;;;3.60;;
51943;SDS011;37969;53.132;6.370;2022-10-03T01:54:53;21.60;;;3.35;;
51943;SDS011;37969;53.132;6.370;2022-10-03T01:59:52;23.30;;;3.53;;
51943;SDS011;37969;53.132;6.370;2022-10-03T02:02:34;26.05;;;3.83;;
51943;SDS011;37969;53.132;6.370;2022-10-03T02:05:05;21.75;;;3.45;;
51943;SDS011;37969;53.132;6.370;2022-10-03T02:07:35;27.00;;;3.75;;
51943;SDS011;37969;53.132;6.370;2022-10-03T02:12:45;26.05;;;3.88;;
51943;SDS011;37969;53.132;6.370;2022-10-03T02:20:13;20.48;;;3.33;;
51943;SDS011;37969;53.132;6.370;2022-10-03T02:22:48;19.92;;;3.55;;
51943;SDS011;37969;53.132;6.370;2022-10-03T02:25:26;19.75;;;3.47;;
51943;SDS011;37969;53.132;6.370;2022-10-03T02:28:07;25.77;;;4.10;;
51943;SDS011;37969;53.132;6.370;2022-10-03T02:30:45;27.08;;;3.40;;
51943;SDS011;37969;53.132;6.370;2022-10-03T02:33:25;22.52;;;3.38;;
51943;SDS011;37969;53.132;6.370;2022-10-03T02:43:30;30.17;;;4.70;;
51943;SDS011;37969;53.132;6.370;2022-10-03T02:51:03;19.15;;;3.22;;
51943;SDS011;37969;53.132;6.370;2022-10-03T03:01:31;20.13;;;4.05;;
51943;SDS011;37969;53.132;6.370;2022-10-03T03:06:30;19.73;;;2.75;;
51943;SDS011;37969;53.132;6.370;2022-10-03T03:09:02;20.60;;;3.30;;
51943;SDS011;37969;53.132;6.370;2022-10-03T03:22:08;20.33;;;2.95;;
51943;SDS011;37969;53.132;6.370;2022-10-03T03:24:40;21.73;;;4.45;;
51943;SDS011;37969;53.132;6.370;2022-10-03T03:37:09;23.95;;;3.60;;
51943;SDS011;37969;53.132;6.370;2022-10-03T03:39:46;20.55;;;4.53;;
51943;SDS011;37969;53.132;6.370;2022-10-03T03:42:27;11.73;;;2.65;;
51943;SDS011;37969;53.132;6.370;2022-10-03T03:50:45;21.30;;;3.60;;
51943;SDS011;37969;53.132;6.370;2022-10-03T03:55:55;15.43;;;3.03;;
51943;SDS011;37969;53.132;6.370;2022-10-03T04:01:08;26.58;;;3.83;;
51943;SDS011;37969;53.132;6.370;2022-10-03T04:06:28;26.25;;;4.38;;
51943;SDS011;37969;53.132;6.370;2022-10-03T04:12:01;22.02;;;3.50;;
51943;SDS011;37969;53.132;6.370;2022-10-03T04:17:04;22.48;;;3.63;;
51943;SDS011;37969;53.132;6.370;2022-10-03T04:19:57;16.98;;;2.90;;
51943;SDS011;37969;53.132;6.370;2022-10-03T04:22:37;19.23;;;3.33;;
51943;SDS011;37969;53.132;6.370;2022-10-03T04:25:15;22.35;;;3.17;;
51943;SDS011;37969;53.132;6.370;2022-10-03T04:30:23;19.35;;;2.88;;
51943;SDS011;37969;53.132;6.370;2022-10-03T04:33:05;22.42;;;3.80;;
51943;SDS011;37969;53.132;6.370;2022-10-03T04:41:19;25.08;;;4.70;;
51943;SDS011;37969;53.132;6.370;2022-10-03T04:46:24;18.67;;;3.73;;
51943;SDS011;37969;53.132;6.370;2022-10-03T04:59:00;16.88;;;3.70;;
51943;SDS011;37969;53.132;6.370;2022-10-03T05:01:37;27.92;;;4.45;;
51943;SDS011;37969;53.132;6.370;2022-10-03T05:04:24;22.00;;;3.85;;
51943;SDS011;37969;53.132;6.370;2022-10-03T05:12:01;22.33;;;4.38;;
51943;SDS011;37969;53.132;6.370;2022-10-03T05:14:44;20.15;;;4.30;;
51943;SDS011;37969;53.132;6.370;2022-10-03T05:17:20;14.77;;;3.38;;
51943;SDS011;37969;53.132;6.370;2022-10-03T05:20:02;21.50;;;3.53;;
51943;SDS011;37969;53.132;6.370;2022-10-03T05:22:38;24.27;;;3.58;;
51943;SDS011;37969;53.132;6.370;2022-10-03T05:25:11;17.48;;;3.78;;
51943;SDS011;37969;53.132;6.370;2022-10-03T05:27:44;20.30;;;3.25;;
51943;SDS011;37969;53.132;6.370;2022-10-03T05:35:40;18.40;;;3.85;;
51943;SDS011;37969;53.132;6.370;2022-10-03T05:38:17;21.50;;;4.15;;
51943;SDS011;37969;53.132;6.370;2022-10-03T05:40:59;17.92;;;3.50;;
51943;SDS011;37969;53.132;6.370;2022-10-03T05:43:32;30.02;;;4.32;;
51943;SDS011;37969;53.132;6.370;2022-10-03T05:48:46;24.63;;;4.18;;
51943;SDS011;37969;53.132;6.370;2022-10-03T06:01:28;22.52;;;4.30;;
51943;SDS011;37969;53.132;6.370;2022-10-03T06:04:03;33.67;;;4.68;;
51943;SDS011;37969;53.132;6.370;2022-10-03T06:09:09;17.13;;;4.57;;
51943;SDS011;37969;53.132;6.370;2022-10-03T06:11:48;21.67;;;4.30;;
51943;SDS011;37969;53.132;6.370;2022-10-03T06:14:43;17.67;;;4.25;;
51943;SDS011;37969;53.132;6.370;2022-10-03T06:19:46;25.10;;;4.18;;
51943;SDS011;37969;53.132;6.370;2022-10-03T06:22:26;22.95;;;3.88;;
51943;SDS011;37969;53.132;6.370;2022-10-03T06:32:48;17.00;;;3.75;;
51943;SDS011;37969;53.132;6.370;2022-10-03T06:35:31;15.70;;;3.40;;
51943;SDS011;37969;53.132;6.370;2022-10-03T06:43:52;18.30;;;4.18;;
51943;SDS011;37969;53.132;6.370;2022-10-03T06:46:41;15.98;;;4.05;;
51943;SDS011;37969;53.132;6.370;2022-10-03T06:49:20;16.70;;;5.10;;
51943;SDS011;37969;53.132;6.370;2022-10-03T06:56:55;15.85;;;4.43;;
51943;SDS011;37969;53.132;6.370;2022-10-03T06:59:30;20.45;;;3.78;;
51943;SDS011;37969;53.132;6.370;2022-10-03T07:02:10;15.45;;;3.92;;
51943;SDS011;37969;53.132;6.370;2022-10-03T07:04:47;15.50;;;2.95;;
51943;SDS011;37969;53.132;6.370;2022-10-03T07:12:31;12.95;;;3.58;;
51943;SDS011;37969;53.132;6.370;2022-10-03T07:27:58;19.23;;;3.42;;
51943;SDS011;37969;53.132;6.370;2022-10-03T07:35:44;14.40;;;2.80;;
51943;SDS011;37969;53.132;6.370;2022-10-03T07:38:55;16.92;;;3.22;;
51943;SDS011;37969;53.132;6.370;2022-10-03T07:44:03;7.38;;;2.45;;
51943;SDS011;37969;53.132;6.370;2022-10-03T07:46:48;17.85;;;3.88;;
51943;SDS011;37969;53.132;6.370;2022-10-03T07:49:36;18.38;;;3.33;;
51943;SDS011;37969;53.132;6.370;2022-10-03T07:57:50;14.25;;;2.88;;
51943;SDS011;37969;53.132;6.370;2022-10-03T08:00:21;13.93;;;2.60;;
51943;SDS011;37969;53.132;6.370;2022-10-03T08:07:51;15.02;;;2.50;;
51943;SDS011;37969;53.132;6.370;2022-10-03T08:12:57;16.63;;;2.50;;
51943;SDS011;37969;53.132;6.370;2022-10-03T08:20:40;13.73;;;2.47;;
51943;SDS011;37969;53.132;6.370;2022-10-03T08:23:15;14.65;;;2.10;;
51943;SDS011;37969;53.132;6.370;2022-10-03T08:28:16;12.18;;;2.15;;
51943;SDS011;37969;53.132;6.370;2022-10-03T08:33:35;15.52;;;2.63;;
51943;SDS011;37969;53.132;6.370;2022-10-03T08:36:12;12.50;;;2.35;;
51943;SDS011;37969;53.132;6.370;2022-10-03T08:41:35;13.40;;;2.30;;
51943;SDS011;37969;53.132;6.370;2022-10-03T08:56:47;14.30;;;2.60;;
51943;SDS011;37969;53.132;6.370;2022-10-03T08:59:27;14.73;;;2.22;;
51943;SDS011;37969;53.132;6.370;2022-10-03T09:02:14;12.93;;;2.30;;
51943;SDS011;37969;53.132;6.370;2022-10-03T09:05:06;18.60;;;2.92;;
51943;SDS011;37969;53.132;6.370;2022-10-03T09:12:41;11.57;;;2.10;;
51943;SDS011;37969;53.132;6.370;2022-10-03T09:15:29;15.82;;;2.58;;
51943;SDS011;37969;53.132;6.370;2022-10-03T09:25:43;11.35;;;1.70;;
51943;SDS011;37969;53.132;6.370;2022-10-03T09:36:41;10.43;;;1.95;;
51943;SDS011;37969;53.132;6.370;2022-10-03T09:39:19;10.13;;;1.88;;
51943;SDS011;37969;53.132;6.370;2022-10-03T09:49:59;10.65;;;2.40;;
51943;SDS011;37969;53.132;6.370;2022-10-03T09:52:40;7.32;;;1.90;;
51943;SDS011;37969;53.132;6.370;2022-10-03T09:55:22;11.35;;;2.00;;
51943;SDS011;37969;53.132;6.370;2022-10-03T09:57:54;8.25;;;2.13;;
51943;SDS011;37969;53.132;6.370;2022-10-03T10:07:59;7.80;;;1.58;;
51943;SDS011;37969;53.132;6.370;2022-10-03T10:13:10;11.95;;;1.92;;
51943;SDS011;37969;53.132;6.370;2022-10-03T10:23:37;6.03;;;1.58;;
51943;SDS011;37969;53.132;6.370;2022-10-03T10:28:44;7.10;;;1.90;;
51943;SDS011;37969;53.132;6.370;2022-10-03T10:31:23;5.35;;;1.33;;
51943;SDS011;37969;53.132;6.370;2022-10-03T10:36:42;9.88;;;2.45;;
51943;SDS011;37969;53.132;6.370;2022-10-03T10:41:53;8.82;;;1.23;;
51943;SDS011;37969;53.132;6.370;2022-10-03T10:47:15;11.35;;;2.13;;
51943;SDS011;37969;53.132;6.370;2022-10-03T11:07:34;13.02;;;1.80;;
51943;SDS011;37969;53.132;6.370;2022-10-03T11:10:26;9.50;;;1.73;;
51943;SDS011;37969;53.132;6.370;2022-10-03T11:39:21;7.00;;;1.92;;
51943;SDS011;37969;53.132;6.370;2022-10-03T11:41:54;8.10;;;1.90;;
51943;SDS011;37969;53.132;6.370;2022-10-03T11:44:24;8.48;;;1.65;;
51943;SDS011;37969;53.132;6.370;2022-10-03T11:49:36;10.10;;;1.60;;
51943;SDS011;37969;53.132;6.370;2022-10-03T11:54:34;11.38;;;1.63;;
51943;SDS011;37969;53.132;6.370;2022-10-03T11:57:07;6.57;;;1.80;;
51943;SDS011;37969;53.132;6.370;2022-10-03T11:59:38;14.32;;;1.85;;
51943;SDS011;37969;53.132;6.370;2022-10-03T12:04:40;10.80;;;1.92;;
51943;SDS011;37969;53.132;6.370;2022-10-03T12:07:13;9.75;;;1.88;;
51943;SDS011;37969;53.132;6.370;2022-10-03T12:10:12;8.25;;;1.70;;
51943;SDS011;37969;53.132;6.370;2022-10-03T12:12:45;7.90;;;1.58;;
51943;SDS011;37969;53.132;6.370;2022-10-03T12:15:18;6.28;;;1.23;;
51943;SDS011;37969;53.132;6.370;2022-10-03T12:17:52;9.13;;;1.67;;
51943;SDS011;37969;53.132;6.370;2022-10-03T12:20:24;9.77;;;1.30;;
51943;SDS011;37969;53.132;6.370;2022-10-03T12:22:57;5.53;;;1.40;;
51943;SDS011;37969;53.132;6.370;2022-10-03T12:25:29;9.57;;;2.13;;
51943;SDS011;37969;53.132;6.370;2022-10-03T12:30:24;9.90;;;1.55;;
51943;SDS011;37969;53.132;6.370;2022-10-03T12:33:06;6.50;;;1.80;;
51943;SDS011;37969;53.132;6.370;2022-10-03T12:35:39;8.80;;;1.65;;
51943;SDS011;37969;53.132;6.370;2022-10-03T12:38:15;5.78;;;1.35;;
51943;SDS011;37969;53.132;6.370;2022-10-03T12:40:47;7.88;;;1.30;;
51943;SDS011;37969;53.132;6.370;2022-10-03T12:43:23;7.95;;;1.65;;
51943;SDS011;37969;53.132;6.370;2022-10-03T12:46:01;9.85;;;1.73;;
51943;SDS011;37969;53.132;6.370;2022-10-03T12:48:35;4.63;;;1.33;;
51943;SDS011;37969;53.132;6.370;2022-10-03T12:51:23;9.30;;;1.65;;
51943;SDS011;37969;53.132;6.370;2022-10-03T12:53:56;5.97;;;1.90;;
51943;SDS011;37969;53.132;6.370;2022-10-03T12:56:36;6.72;;;1.67;;
51943;SDS011;37969;53.132;6.370;2022-10-03T12:59:15;6.35;;;1.17;;
51943;SDS011;37969;53.132;6.370;2022-10-03T13:06:53;11.40;;;1.70;;
51943;SDS011;37969;53.132;6.370;2022-10-03T13:09:24;6.18;;;1.55;;
51943;SDS011;37969;53.132;6.370;2022-10-03T13:12:00;5.47;;;1.50;;
51943;SDS011;37969;53.132;6.370;2022-10-03T13:17:20;6.95;;;1.25;;
51943;SDS011;37969;53.132;6.370;2022-10-03T13:19:54;8.30;;;1.60;;
51943;SDS011;37969;53.132;6.370;2022-10-03T13:22:27;8.77;;;1.80;;
51943;SDS011;37969;53.132;6.370;2022-10-03T13:27:25;8.18;;;2.17;;
51943;SDS011;37969;53.132;6.370;2022-10-03T13:30:04;9.05;;;1.55;;
51943;SDS011;37969;53.132;6.370;2022-10-03T13:32:32;11.15;;;2.15;;
51943;SDS011;37969;53.132;6.370;2022-10-03T13:37:58;7.70;;;1.95;;
51943;SDS011;37969;53.132;6.370;2022-10-03T13:40:26;12.05;;;1.85;;
51943;SDS011;37969;53.132;6.370;2022-10-03T13:42:55;4.03;;;1.42;;
51943;SDS011;37969;53.132;6.370;2022-10-03T13:45:23;7.07;;;1.70;;
51943;SDS011;37969;53.132;6.370;2022-10-03T13:47:52;5.95;;;1.58;;
51943;SDS011;37969;53.132;6.370;2022-10-03T13:50:25;7.20;;;1.88;;
51943;SDS011;37969;53.132;6.370;2022-10-03T14:03:12;9.85;;;1.60;;
51943;SDS011;37969;53.132;6.370;2022-10-03T14:05:49;15.85;;;2.20;;
51943;SDS011;37969;53.132;6.370;2022-10-03T14:10:52;5.68;;;1.45;;
51943;SDS011;37969;53.132;6.370;2022-10-03T14:16:11;8.43;;;1.60;;
51943;SDS011;37969;53.132;6.370;2022-10-03T14:18:44;7.13;;;1.30;;
51943;SDS011;37969;53.132;6.370;2022-10-03T14:21:23;7.25;;;1.48;;
51943;SDS011;37969;53.132;6.370;2022-10-03T14:23:58;9.30;;;1.58;;
51943;SDS011;37969;53.132;6.370;2022-10-03T14:26:41;9.45;;;1.58;;
51943;SDS011;37969;53.132;6.370;2022-10-03T14:29:16;8.02;;;1.70;;
51943;SDS011;37969;53.132;6.370;2022-10-03T14:31:47;5.30;;;1.30;;
51943;SDS011;37969;53.132;6.370;2022-10-03T14:34:33;6.60;;;1.50;;
51943;SDS011;37969;53.132;6.370;2022-10-03T14:37:06;7.25;;;1.40;;
51943;SDS011;37969;53.132;6.370;2022-10-03T14:44:36;3.95;;;1.25;;
51943;SDS011;37969;53.132;6.370;2022-10-03T14:47:08;5.50;;;1.40;;
51943;SDS011;37969;53.132;6.370;2022-10-03T14:49:35;8.65;;;1.80;;
51943;SDS011;37969;53.132;6.370;2022-10-03T14:52:03;7.10;;;1.40;;
51943;SDS011;37969;53.132;6.370;2022-10-03T14:54:32;6.53;;;1.75;;
51943;SDS011;37969;53.132;6.370;2022-10-03T14:57:12;8.00;;;1.30;;
51943;SDS011;37969;53.132;6.370;2022-10-03T14:59:38;9.57;;;1.88;;
51943;SDS011;37969;53.132;6.370;2022-10-03T15:02:20;4.85;;;1.20;;
51943;SDS011;37969;53.132;6.370;2022-10-03T15:04:50;7.13;;;1.40;;
51943;SDS011;37969;53.132;6.370;2022-10-03T15:07:18;7.20;;;1.55;;
51943;SDS011;37969;53.132;6.370;2022-10-03T15:09:57;6.18;;;1.45;;
51943;SDS011;37969;53.132;6.370;2022-10-03T15:12:24;6.20;;;1.33;;
51943;SDS011;37969;53.132;6.370;2022-10-03T15:14:55;5.30;;;1.48;;
51943;SDS011;37969;53.132;6.370;2022-10-03T15:17:23;8.25;;;1.90;;
51943;SDS011;37969;53.132;6.370;2022-10-03T15:19:51;8.75;;;1.77;;
51943;SDS011;37969;53.132;6.370;2022-10-03T15:22:30;6.22;;;1.60;;
51943;SDS011;37969;53.132;6.370;2022-10-03T15:25:01;7.45;;;1.23;;
51943;SDS011;37969;53.132;6.370;2022-10-03T15:27:28;6.25;;;1.35;;
51943;SDS011;37969;53.132;6.370;2022-10-03T15:29:56;10.90;;;1.65;;
51943;SDS011;37969;53.132;6.370;2022-10-03T15:32:28;7.97;;;1.40;;
51943;SDS011;37969;53.132;6.370;2022-10-03T15:34:57;6.55;;;1.58;;
51943;SDS011;37969;53.132;6.370;2022-10-03T15:37:25;4.72;;;1.38;;
51943;SDS011;37969;53.132;6.370;2022-10-03T15:39:57;7.25;;;1.50;;
51943;SDS011;37969;53.132;6.370;2022-10-03T15:42:28;10.52;;;2.33;;
51943;SDS011;37969;53.132;6.370;2022-10-03T15:44:56;8.45;;;1.70;;
51943;SDS011;37969;53.132;6.370;2022-10-03T15:47:25;4.60;;;1.42;;
51943;SDS011;37969;53.132;6.370;2022-10-03T15:49:52;9.40;;;1.77;;
51943;SDS011;37969;53.132;6.370;2022-10-03T15:52:22;5.03;;;1.53;;
51943;SDS011;37969;53.132;6.370;2022-10-03T15:54:50;7.93;;;1.40;;
51943;SDS011;37969;53.132;6.370;2022-10-03T15:57:20;11.90;;;1.75;;
51943;SDS011;37969;53.132;6.370;2022-10-03T15:59:50;8.40;;;2.00;;
51943;SDS011;37969;53.132;6.370;2022-10-03T16:02:18;7.57;;;1.80;;
51943;SDS011;37969;53.132;6.370;2022-10-03T16:04:46;7.35;;;1.92;;
51943;SDS011;37969;53.132;6.370;2022-10-03T16:09:52;5.43;;;1.23;;
51943;SDS011;37969;53.132;6.370;2022-10-03T16:15:05;6.43;;;1.67;;
51943;SDS011;37969;53.132;6.370;2022-10-03T16:17:40;9.70;;;1.92;;
51943;SDS011;37969;53.132;6.370;2022-10-03T16:22:42;8.73;;;1.95;;
51943;SDS011;37969;53.132;6.370;2022-10-03T16:27:39;13.55;;;1.90;;
51943;SDS011;37969;53.132;6.370;2022-10-03T16:32:37;8.23;;;1.63;;
51943;SDS011;37969;53.132;6.370;2022-10-03T16:35:13;6.97;;;1.70;;
51943;SDS011;37969;53.132;6.370;2022-10-03T16:37:46;8.48;;;1.38;;
51943;SDS011;37969;53.132;6.370;2022-10-03T16:40:17;6.30;;;1.90;;
51943;SDS011;37969;53.132;6.370;2022-10-03T16:42:45;7.40;;;1.75;;
51943;SDS011;37969;53.132;6.370;2022-10-03T16:45:18;7.00;;;1.60;;
51943;SDS011;37969;53.132;6.370;2022-10-03T16:47:46;9.57;;;1.65;;
51943;SDS011;37969;53.132;6.370;2022-10-03T16:50:33;8.13;;;1.80;;
51943;SDS011;37969;53.132;6.370;2022-10-03T16:53:00;9.82;;;1.55;;
51943;SDS011;37969;53.132;6.370;2022-10-03T16:55:35;6.10;;;1.52;;
51943;SDS011;37969;53.132;6.370;2022-10-03T16:58:15;13.20;;;1.75;;
51943;SDS011;37969;53.132;6.370;2022-10-03T17:00:48;13.32;;;1.88;;
51943;SDS011;37969;53.132;6.370;2022-10-03T17:03:16;7.75;;;1.92;;
51943;SDS011;37969;53.132;6.370;2022-10-03T17:05:44;8.85;;;2.05;;
51943;SDS011;37969;53.132;6.370;2022-10-03T17:08:11;17.10;;;3.03;;
51943;SDS011;37969;53.132;6.370;2022-10-03T17:10:39;7.78;;;2.20;;
51943;SDS011;37969;53.132;6.370;2022-10-03T17:13:20;7.93;;;2.05;;
51943;SDS011;37969;53.132;6.370;2022-10-03T17:15:49;13.00;;;2.28;;
51943;SDS011;37969;53.132;6.370;2022-10-03T17:20:49;16.20;;;3.08;;
51943;SDS011;37969;53.132;6.370;2022-10-03T17:28:13;9.75;;;3.08;;
51943;SDS011;37969;53.132;6.370;2022-10-03T17:33:28;9.10;;;2.97;;
51943;SDS011;37969;53.132;6.370;2022-10-03T17:36:09;4.05;;;2.13;;
51943;SDS011;37969;53.132;6.370;2022-10-03T17:38:43;11.88;;;2.90;;
51943;SDS011;37969;53.132;6.370;2022-10-03T17:41:14;11.45;;;2.95;;
51943;SDS011;37969;53.132;6.370;2022-10-03T17:43:46;11.57;;;2.67;;
51943;SDS011;37969;53.132;6.370;2022-10-03T17:46:28;11.57;;;2.47;;
51943;SDS011;37969;53.132;6.370;2022-10-03T17:49:00;8.10;;;2.80;;
51943;SDS011;37969;53.132;6.370;2022-10-03T17:51:31;8.10;;;2.80;;
51943;SDS011;37969;53.132;6.370;2022-10-03T17:54:01;9.90;;;2.85;;
51943;SDS011;37969;53.132;6.370;2022-10-03T17:56:28;10.93;;;3.00;;
51943;SDS011;37969;53.132;6.370;2022-10-03T17:59:00;15.75;;;3.33;;
51943;SDS011;37969;53.132;6.370;2022-10-03T18:01:30;8.27;;;2.65;;
51943;SDS011;37969;53.132;6.370;2022-10-03T18:04:00;9.07;;;2.90;;
51943;SDS011;37969;53.132;6.370;2022-10-03T18:09:06;9.40;;;3.00;;
51943;SDS011;37969;53.132;6.370;2022-10-03T18:11:34;8.77;;;2.50;;
51943;SDS011;37969;53.132;6.370;2022-10-03T18:14:07;10.00;;;2.30;;
51943;SDS011;37969;53.132;6.370;2022-10-03T18:16:43;8.10;;;2.72;;
51943;SDS011;37969;53.132;6.370;2022-10-03T18:21:49;9.15;;;2.50;;
51943;SDS011;37969;53.132;6.370;2022-10-03T18:24:22;7.25;;;2.13;;
51943;SDS011;37969;53.132;6.370;2022-10-03T18:29:27;8.05;;;2.40;;
51943;SDS011;37969;53.132;6.370;2022-10-03T18:31:55;11.13;;;2.33;;
51943;SDS011;37969;53.132;6.370;2022-10-03T18:34:31;8.38;;;2.33;;
51943;SDS011;37969;53.132;6.370;2022-10-03T18:36:59;7.00;;;1.83;;
51943;SDS011;37969;53.132;6.370;2022-10-03T18:39:28;7.30;;;2.03;;
51943;SDS011;37969;53.132;6.370;2022-10-03T18:41:56;8.75;;;2.58;;
51943;SDS011;37969;53.132;6.370;2022-10-03T18:44:23;5.65;;;2.08;;
51943;SDS011;37969;53.132;6.370;2022-10-03T18:47:00;10.88;;;2.38;;
51943;SDS011;37969;53.132;6.370;2022-10-03T18:49:31;8.00;;;2.42;;
51943;SDS011;37969;53.132;6.370;2022-10-03T18:54:33;7.80;;;2.85;;
51943;SDS011;37969;53.132;6.370;2022-10-03T18:57:01;10.45;;;2.80;;
51943;SDS011;37969;53.132;6.370;2022-10-03T18:59:33;12.70;;;2.78;;
51943;SDS011;37969;53.132;6.370;2022-10-03T19:02:00;9.68;;;3.22;;
51943;SDS011;37969;53.132;6.370;2022-10-03T19:04:39;15.55;;;3.97;;
51943;SDS011;37969;53.132;6.370;2022-10-03T19:07:10;7.95;;;2.67;;
51943;SDS011;37969;53.132;6.370;2022-10-03T19:09:42;11.43;;;4.75;;
51943;SDS011;37969;53.132;6.370;2022-10-03T19:12:14;9.65;;;3.60;;
51943;SDS011;37969;53.132;6.370;2022-10-03T19:17:11;15.02;;;4.30;;
51943;SDS011;37969;53.132;6.370;2022-10-03T19:19:48;11.02;;;3.92;;
51943;SDS011;37969;53.132;6.370;2022-10-03T19:22:15;7.72;;;2.40;;
51943;SDS011;37969;53.132;6.370;2022-10-03T19:24:43;5.28;;;2.67;;
51943;SDS011;37969;53.132;6.370;2022-10-03T19:27:12;14.27;;;4.53;;
51943;SDS011;37969;53.132;6.370;2022-10-03T19:29:42;11.13;;;4.03;;
51943;SDS011;37969;53.132;6.370;2022-10-03T19:32:19;9.90;;;4.82;;
51943;SDS011;37969;53.132;6.370;2022-10-03T19:34:47;12.32;;;5.93;;
51943;SDS011;37969;53.132;6.370;2022-10-03T19:37:18;14.30;;;7.18;;
51943;SDS011;37969;53.132;6.370;2022-10-03T19:39:47;13.52;;;8.88;;
51943;SDS011;37969;53.132;6.370;2022-10-03T19:44:40;17.73;;;12.73;;
51943;SDS011;37969;53.132;6.370;2022-10-03T19:47:13;16.88;;;11.82;;
51943;SDS011;37969;53.132;6.370;2022-10-03T19:54:47;20.95;;;13.20;;
51943;SDS011;37969;53.132;6.370;2022-10-03T19:57:15;18.38;;;12.05;;
51943;SDS011;37969;53.132;6.370;2022-10-03T19:59:52;20.08;;;12.93;;
51943;SDS011;37969;53.132;6.370;2022-10-03T20:02:20;12.65;;;9.75;;
51943;SDS011;37969;53.132;6.370;2022-10-03T20:04:47;14.15;;;9.73;;
51943;SDS011;37969;53.132;6.370;2022-10-03T20:07:15;13.05;;;9.80;;
51943;SDS011;37969;53.132;6.370;2022-10-03T20:09:53;11.00;;;8.00;;
51943;SDS011;37969;53.132;6.370;2022-10-03T20:12:20;14.27;;;9.13;;
51943;SDS011;37969;53.132;6.370;2022-10-03T20:14:48;12.25;;;7.68;;
51943;SDS011;37969;53.132;6.370;2022-10-03T20:17:20;16.92;;;8.43;;
51943;SDS011;37969;53.132;6.370;2022-10-03T20:22:21;10.50;;;6.07;;
51943;SDS011;37969;53.132;6.370;2022-10-03T20:24:49;12.45;;;6.60;;
51943;SDS011;37969;53.132;6.370;2022-10-03T20:27:23;16.75;;;6.95;;
51943;SDS011;37969;53.132;6.370;2022-10-03T20:29:59;12.40;;;6.82;;
51943;SDS011;37969;53.132;6.370;2022-10-03T20:32:27;11.85;;;7.03;;
51943;SDS011;37969;53.132;6.370;2022-10-03T20:34:54;14.45;;;7.03;;
51943;SDS011;37969;53.132;6.370;2022-10-03T20:39:48;13.88;;;7.70;;
51943;SDS011;37969;53.132;6.370;2022-10-03T20:42:18;12.52;;;6.53;;
51943;SDS011;37969;53.132;6.370;2022-10-03T20:47:24;11.95;;;7.13;;
51943;SDS011;37969;53.132;6.370;2022-10-03T20:49:53;15.18;;;6.85;;
51943;SDS011;37969;53.132;6.370;2022-10-03T20:52:20;14.40;;;7.50;;
51943;SDS011;37969;53.132;6.370;2022-10-03T20:55:01;23.67;;;8.52;;
51943;SDS011;37969;53.132;6.370;2022-10-03T20:57:34;12.00;;;7.05;;
51943;SDS011;37969;53.132;6.370;2022-10-03T21:02:35;14.13;;;7.25;;
51943;SDS011;37969;53.132;6.370;2022-10-03T21:07:34;16.88;;;7.88;;
51943;SDS011;37969;53.132;6.370;2022-10-03T21:12:36;18.35;;;8.10;;
51943;SDS011;37969;53.132;6.370;2022-10-03T21:15:08;15.93;;;8.30;;
51943;SDS011;37969;53.132;6.370;2022-10-03T21:17:36;25.25;;;9.30;;
51943;SDS011;37969;53.132;6.370;2022-10-03T21:20:04;18.85;;;9.00;;
51943;SDS011;37969;53.132;6.370;2022-10-03T21:22:31;18.20;;;8.63;;
51943;SDS011;37969;53.132;6.370;2022-10-03T21:25:04;17.60;;;9.35;;
51943;SDS011;37969;53.132;6.370;2022-10-03T21:27:32;19.55;;;8.57;;
51943;SDS011;37969;53.132;6.370;2022-10-03T21:30:12;20.33;;;9.45;;
51943;SDS011;37969;53.132;6.370;2022-10-03T21:32:50;18.58;;;9.45;;
51943;SDS011;37969;53.132;6.370;2022-10-03T21:38:03;22.48;;;10.18;;
51943;SDS011;37969;53.132;6.370;2022-10-03T21:43:03;21.83;;;9.20;;
51943;SDS011;37969;53.132;6.370;2022-10-03T21:45:47;23.63;;;10.85;;
51943;SDS011;37969;53.132;6.370;2022-10-03T21:48:18;16.85;;;9.25;;
51943;SDS011;37969;53.132;6.370;2022-10-03T21:50:51;17.23;;;9.73;;
51943;SDS011;37969;53.132;6.370;2022-10-03T21:53:21;21.27;;;10.93;;
51943;SDS011;37969;53.132;6.370;2022-10-03T21:55:54;23.33;;;9.57;;
51943;SDS011;37969;53.132;6.370;2022-10-03T21:58:29;20.08;;;10.23;;
51943;SDS011;37969;53.132;6.370;2022-10-03T22:01:11;20.95;;;10.73;;
51943;SDS011;37969;53.132;6.370;2022-10-03T22:03:41;23.40;;;11.38;;
51943;SDS011;37969;53.132;6.370;2022-10-03T22:06:13;23.42;;;12.23;;
51943;SDS011;37969;53.132;6.370;2022-10-03T22:08:43;29.98;;;12.80;;
51943;SDS011;37969;53.132;6.370;2022-10-03T22:11:16;22.25;;;11.43;;
51943;SDS011;37969;53.132;6.370;2022-10-03T22:13:51;22.25;;;12.88;;
51943;SDS011;37969;53.132;6.370;2022-10-03T22:19:10;31.67;;;13.37;;
51943;SDS011;37969;53.132;6.370;2022-10-03T22:21:40;24.50;;;13.00;;
51943;SDS011;37969;53.132;6.370;2022-10-03T22:24:12;24.73;;;13.88;;
51943;SDS011;37969;53.132;6.370;2022-10-03T22:27:02;28.65;;;14.00;;
51943;SDS011;37969;53.132;6.370;2022-10-03T22:29:34;29.83;;;13.40;;
51943;SDS011;37969;53.132;6.370;2022-10-03T22:32:04;23.98;;;12.35;;
51943;SDS011;37969;53.132;6.370;2022-10-03T22:34:38;26.33;;;12.52;;
51943;SDS011;37969;53.132;6.370;2022-10-03T22:37:07;30.48;;;14.35;;
51943;SDS011;37969;53.132;6.370;2022-10-03T22:39:33;23.33;;;12.30;;
51943;SDS011;37969;53.132;6.370;2022-10-03T22:42:00;28.75;;;13.25;;
51943;SDS011;37969;53.132;6.370;2022-10-03T22:44:28;25.17;;;13.55;;
51943;SDS011;37969;53.132;6.370;2022-10-03T22:46:56;35.53;;;14.50;;
51943;SDS011;37969;53.132;6.370;2022-10-03T22:49:25;26.73;;;14.55;;
51943;SDS011;37969;53.132;6.370;2022-10-03T22:51:53;26.73;;;13.00;;
51943;SDS011;37969;53.132;6.370;2022-10-03T22:54:19;27.77;;;14.50;;